Harrisville, Indiana
Current Conditions -  °F | °C
As of 9:35 PM on Thursday 20 Nov 2014 (Local Time) from KVES Reporting Station
Overcast Overcast  
Wind Chill: -10°   Ceiling: 4900
Heat Index: -5°   Visibility: 10mi
Dew Point: -8°   Wind: 8mph
Humidity: 80%   Direction: 260°W
Pressure: 30.17"   Gusts: NA
Location:  40.2091°N, 84.8536°W
Report Text: KVES 210235Z AUTO 26007KT 10SM OVC049 M05/M08 A3017 RMK AO2
Loading
Personal Weather Stations






























Interactive Weather Map New forecast layout! Learn more

10-Day Weather Forecast

Advertisements
Track Severe Weather on mobile